Terminal Aerodrome Forecast
Issued by NWS

Home | Current Version | Previous Version | Text Only | Print | Product List | Glossary On
Versions: 1 2 3 4 5 6 7 8 9 10 11 12 13
771
FTUS42 KGSP 220521
TAFAND
TAF
KAND 220521Z 2206/2306 04005KT P6SM FEW250
     FM220800 04004KT P6SM FEW150
     FM221100 VRB03KT 5SM BR FEW050 FEW200
     FM221300 05004KT P6SM FEW060
     FM221800 07005KT P6SM SCT045=

USA.gov is the U.S. government's official web portal to all federal, state and local government web resources and services.